Time,TemperatureF,DewpointF,PressureIn,WindDirection,WindDirectionDegrees,WindSpeedMPH,WindSpeedGustMPH,Humidity,HourlyPrecipIn,Conditions,Clouds,dailyrainin,SolarRadiationWatts/m^2,SoftwareType,DateUTC
2013-08-20 00:10:00,62.3,48.0,29.84,ENE,57,0.0,-999.0,60,-99.99,,,0.00,0,weatherlink.com 1.10,2013-08-20 07:10:00,
2013-08-20 00:23:00,62.0,48.0,29.83,ENE,57,0.0,-999.0,60,-99.99,,,0.00,0,weatherlink.com 1.10,2013-08-20 07:23:00,
2013-08-20 00:38:00,61.7,48.0,29.83,ENE,57,0.0,-999.0,61,-99.99,,,0.00,0,weatherlink.com 1.10,2013-08-20 07:38:00,
2013-08-20 00:53:00,61.5,48.0,29.84,ENE,57,0.0,-999.0,61,-99.99,,,0.00,0,weatherlink.com 1.10,2013-08-20 07:53:00,
2013-08-20 01:08:00,60.5,47.0,29.84,ENE,57,4.0,-999.0,62,-99.99,,,0.00,0,weatherlink.com 1.10,2013-08-20 08:08:00,
2013-08-20 01:23:00,59.3,47.0,29.84,ENE,57,4.0,-999.0,65,-99.99,,,0.00,0,weatherlink.com 1.10,2013-08-20 08:23:00,
2013-08-20 01:38:00,60.0,47.0,29.84,ENE,58,5.0,-999.0,63,-99.99,,,0.00,0,weatherlink.com 1.10,2013-08-20 08:38:00,
2013-08-20 01:53:00,58.3,47.0,29.84,SSE,167,4.0,-999.0,66,-99.99,,,0.00,0,weatherlink.com 1.10,2013-08-20 08:53:00,
2013-08-20 02:08:00,57.7,47.0,29.84,SSE,167,4.0,-999.0,68,-99.99,,,0.00,0,weatherlink.com 1.10,2013-08-20 09:08:00,
2013-08-20 02:23:00,57.7,47.0,29.84,SSE,167,0.0,-999.0,68,-99.99,,,0.00,0,weatherlink.com 1.10,2013-08-20 09:23:00,
2013-08-20 02:38:00,59.5,48.0,29.84,SSE,167,2.0,-999.0,66,-99.99,,,0.00,0,weatherlink.com 1.10,2013-08-20 09:38:00,
2013-08-20 02:53:00,58.4,48.0,29.84,SSE,167,5.0,-999.0,68,-99.99,,,0.00,0,weatherlink.com 1.10,2013-08-20 09:53:00,
2013-08-20 03:08:00,59.0,48.0,29.84,SSE,167,1.0,-999.0,67,-99.99,,,0.00,0,weatherlink.com 1.10,2013-08-20 10:08:00,
2013-08-20 03:23:00,59.0,48.0,29.84,SSE,167,2.0,-999.0,66,-99.99,,,0.00,0,weatherlink.com 1.10,2013-08-20 10:23:00,
2013-08-20 03:38:00,56.8,47.0,29.85,South,169,6.0,-999.0,69,-99.99,,,0.00,0,weatherlink.com 1.10,2013-08-20 10:38:00,
2013-08-20 03:53:00,55.7,46.0,29.85,South,169,5.0,-999.0,71,-99.99,,,0.00,0,weatherlink.com 1.10,2013-08-20 10:53:00,
2013-08-20 04:08:00,56.3,47.0,29.85,South,171,6.0,-999.0,71,-99.99,,,0.00,0,weatherlink.com 1.10,2013-08-20 11:08:00,
2013-08-20 04:23:00,58.2,48.0,29.85,South,171,0.0,-999.0,69,-99.99,,,0.00,0,weatherlink.com 1.10,2013-08-20 11:23:00,
2013-08-20 04:38:00,58.4,49.0,29.85,South,171,0.0,-999.0,70,-99.99,,,0.00,0,weatherlink.com 1.10,2013-08-20 11:38:00,
2013-08-20 04:53:00,57.9,49.0,29.85,South,171,0.0,-999.0,71,-99.99,,,0.00,0,weatherlink.com 1.10,2013-08-20 11:53:00,
2013-08-20 05:08:00,57.1,47.0,29.85,South,171,0.0,-999.0,70,-99.99,,,0.00,0,weatherlink.com 1.10,2013-08-20 12:08:00,
2013-08-20 05:23:00,56.4,49.0,29.85,South,171,0.0,-999.0,75,-99.99,,,0.00,0,weatherlink.com 1.10,2013-08-20 12:23:00,
2013-08-20 05:38:00,56.1,48.0,29.86,South,171,4.0,-999.0,74,-99.99,,,0.00,0,weatherlink.com 1.10,2013-08-20 12:38:00,
2013-08-20 05:53:00,56.6,48.0,29.86,South,171,2.0,-999.0,74,-99.99,,,0.00,0,weatherlink.com 1.10,2013-08-20 12:53:00,
2013-08-20 06:08:00,56.6,48.0,29.86,South,171,4.0,-999.0,72,-99.99,,,0.00,0,weatherlink.com 1.10,2013-08-20 13:08:00,
2013-08-20 06:23:00,55.7,48.0,29.86,South,171,0.0,-999.0,76,-99.99,,,0.00,7,weatherlink.com 1.10,2013-08-20 13:23:00,
2013-08-20 06:38:00,57.0,48.0,29.86,South,171,5.0,-999.0,73,-99.99,,,0.00,26,weatherlink.com 1.10,2013-08-20 13:38:00,
2013-08-20 06:53:00,53.6,46.0,29.87,South,182,5.0,-999.0,75,-99.99,,,0.00,62,weatherlink.com 1.10,2013-08-20 13:53:00,
2013-08-20 07:08:00,54.5,47.0,29.87,South,190,5.0,-999.0,75,-99.99,,,0.00,111,weatherlink.com 1.10,2013-08-20 14:08:00,
2013-08-20 07:23:00,54.7,47.0,29.88,SSW,193,3.0,-999.0,75,-99.99,,,0.00,163,weatherlink.com 1.10,2013-08-20 14:23:00,
2013-08-20 07:38:00,56.4,47.0,29.88,SSW,205,4.0,-999.0,71,-99.99,,,0.00,209,weatherlink.com 1.10,2013-08-20 14:38:00,
2013-08-20 07:53:00,58.6,49.0,29.88,SSW,208,4.0,-999.0,70,-99.99,,,0.00,257,weatherlink.com 1.10,2013-08-20 14:53:00,
2013-08-20 08:08:00,61.5,49.0,29.88,SSW,208,3.0,-999.0,63,-99.99,,,0.00,302,weatherlink.com 1.10,2013-08-20 15:08:00,
2013-08-20 08:23:00,63.6,49.0,29.88,South,190,5.0,-999.0,60,-99.99,,,0.00,353,weatherlink.com 1.10,2013-08-20 15:23:00,
2013-08-20 08:38:00,64.8,49.0,29.88,South,189,4.0,-999.0,57,-99.99,,,0.00,401,weatherlink.com 1.10,2013-08-20 15:38:00,
2013-08-20 08:53:00,65.4,49.0,29.87,SSW,196,1.0,-999.0,55,-99.99,,,0.00,450,weatherlink.com 1.10,2013-08-20 15:53:00,
2013-08-20 09:08:00,66.8,49.0,29.87,East,92,1.0,-999.0,53,-99.99,,,0.00,496,weatherlink.com 1.10,2013-08-20 16:08:00,
2013-08-20 09:23:00,67.9,49.0,29.87,ESE,113,0.0,-999.0,52,-99.99,,,0.00,541,weatherlink.com 1.10,2013-08-20 16:23:00,
2013-08-20 09:38:00,68.8,49.0,29.87,ESE,103,4.0,-999.0,49,-99.99,,,0.00,587,weatherlink.com 1.10,2013-08-20 16:38:00,
2013-08-20 09:53:00,69.3,47.0,29.87,ESE,109,0.0,-999.0,45,-99.99,,,0.00,622,weatherlink.com 1.10,2013-08-20 16:53:00,
2013-08-20 10:08:00,69.6,43.0,29.87,NE,34,1.0,-999.0,38,-99.99,,,0.00,663,weatherlink.com 1.10,2013-08-20 17:08:00,
2013-08-20 10:23:00,70.6,42.0,29.87,NE,43,4.0,-999.0,36,-99.99,,,0.00,703,weatherlink.com 1.10,2013-08-20 17:23:00,
2013-08-20 10:38:00,70.8,44.0,29.87,NE,39,1.0,-999.0,38,-99.99,,,0.00,728,weatherlink.com 1.10,2013-08-20 17:38:00,
2013-08-20 10:53:00,72.3,41.0,29.87,East,83,2.0,-999.0,32,-99.99,,,0.00,759,weatherlink.com 1.10,2013-08-20 17:53:00,
2013-08-20 11:08:00,73.1,41.0,29.87,ENE,69,3.0,-999.0,32,-99.99,,,0.00,788,weatherlink.com 1.10,2013-08-20 18:08:00,
2013-08-20 11:23:00,74.2,42.0,29.86,East,82,2.0,-999.0,32,-99.99,,,0.00,819,weatherlink.com 1.10,2013-08-20 18:23:00,
2013-08-20 11:38:00,75.4,41.0,29.86,East,94,6.0,-999.0,29,-99.99,,,0.00,756,weatherlink.com 1.10,2013-08-20 18:38:00,
2013-08-20 11:53:00,74.4,40.0,29.86,SE,128,9.0,-999.0,29,-99.99,,,0.00,872,weatherlink.com 1.10,2013-08-20 18:53:00,
2013-08-20 12:08:00,75.4,40.0,29.86,East,84,3.0,-999.0,28,-99.99,,,0.00,828,weatherlink.com 1.10,2013-08-20 19:08:00,
2013-08-20 12:23:00,75.1,35.0,29.85,NE,44,3.0,-999.0,23,-99.99,,,0.00,844,weatherlink.com 1.10,2013-08-20 19:23:00,
2013-08-20 12:38:00,76.2,35.0,29.84,ESE,102,1.0,-999.0,22,-99.99,,,0.00,861,weatherlink.com 1.10,2013-08-20 19:38:00,
2013-08-20 12:53:00,77.3,34.0,29.84,East,93,7.0,-999.0,21,-99.99,,,0.00,642,weatherlink.com 1.10,2013-08-20 19:53:00,
2013-08-20 13:08:00,76.3,30.0,29.84,NE,47,4.0,-999.0,18,-99.99,,,0.00,668,weatherlink.com 1.10,2013-08-20 20:08:00,
2013-08-20 13:23:00,77.5,28.0,29.84,NNE,33,2.0,-999.0,16,-99.99,,,0.00,647,weatherlink.com 1.10,2013-08-20 20:23:00,
2013-08-20 13:38:00,78.3,31.0,29.83,North,350,2.0,-999.0,18,-99.99,,,0.00,809,weatherlink.com 1.10,2013-08-20 20:38:00,
2013-08-20 13:53:00,78.8,26.0,29.83,NNE,24,12.0,-999.0,14,-99.99,,,0.00,881,weatherlink.com 1.10,2013-08-20 20:53:00,
2013-08-20 14:08:00,79.6,18.0,29.83,North,5,0.0,-999.0,10,-99.99,,,0.00,865,weatherlink.com 1.10,2013-08-20 21:08:00,
2013-08-20 14:23:00,80.0,19.0,29.82,NE,35,3.0,-999.0,10,-99.99,,,0.00,844,weatherlink.com 1.10,2013-08-20 21:23:00,
2013-08-20 14:38:00,80.8,21.0,29.82,NNE,17,0.0,-999.0,11,-99.99,,,0.00,817,weatherlink.com 1.10,2013-08-20 21:38:00,
2013-08-20 14:53:00,80.8,24.0,29.82,NE,46,7.0,-999.0,12,-99.99,,,0.00,791,weatherlink.com 1.10,2013-08-20 21:53:00,
2013-08-20 15:08:00,82.0,26.0,29.81,North,349,0.0,-999.0,13,-99.99,,,0.00,763,weatherlink.com 1.10,2013-08-20 22:08:00,
2013-08-20 15:23:00,82.2,25.0,29.81,East,94,9.0,-999.0,12,-99.99,,,0.00,726,weatherlink.com 1.10,2013-08-20 22:23:00,
2013-08-20 15:38:00,82.4,25.0,29.80,NNE,25,6.0,-999.0,12,-99.99,,,0.00,694,weatherlink.com 1.10,2013-08-20 22:38:00,
2013-08-20 15:53:00,83.2,27.0,29.80,North,5,6.0,-999.0,13,-99.99,,,0.00,657,weatherlink.com 1.10,2013-08-20 22:53:00,
2013-08-20 16:08:00,82.0,25.0,29.80,NNE,25,8.0,-999.0,12,-99.99,,,0.00,621,weatherlink.com 1.10,2013-08-20 23:08:00,
2013-08-20 16:23:00,82.9,23.0,29.80,ENE,73,5.0,-999.0,11,-99.99,,,0.00,594,weatherlink.com 1.10,2013-08-20 23:23:00,
2013-08-20 16:38:00,83.3,28.0,29.79,North,5,4.0,-999.0,13,-99.99,,,0.00,545,weatherlink.com 1.10,2013-08-20 23:38:00,
2013-08-20 16:53:00,82.2,28.0,29.79,NNE,30,7.0,-999.0,14,-99.99,,,0.00,501,weatherlink.com 1.10,2013-08-20 23:53:00,
2013-08-20 17:08:00,82.1,27.0,29.79,NE,46,7.0,-999.0,13,-99.99,,,0.00,429,weatherlink.com 1.10,2013-08-21 00:08:00,
2013-08-20 17:23:00,82.5,29.0,29.79,North,9,10.0,-999.0,14,-99.99,,,0.00,431,weatherlink.com 1.10,2013-08-21 00:23:00,
2013-08-20 17:38:00,82.3,28.0,29.79,NE,46,5.0,-999.0,14,-99.99,,,0.00,383,weatherlink.com 1.10,2013-08-21 00:38:00,
2013-08-20 17:53:00,82.2,27.0,29.79,NNE,14,9.0,-999.0,13,-99.99,,,0.00,346,weatherlink.com 1.10,2013-08-21 00:53:00,
2013-08-20 18:08:00,81.7,26.0,29.79,NNE,14,8.0,-999.0,13,-99.99,,,0.00,297,weatherlink.com 1.10,2013-08-21 01:08:00,
2013-08-20 18:23:00,81.3,28.0,29.79,NE,34,5.0,-999.0,14,-99.99,,,0.00,200,weatherlink.com 1.10,2013-08-21 01:23:00,
2013-08-20 18:38:00,80.5,27.0,29.78,North,355,7.0,-999.0,14,-99.99,,,0.00,155,weatherlink.com 1.10,2013-08-21 01:38:00,
2013-08-20 18:53:00,80.8,27.0,29.78,NE,34,2.0,-999.0,14,-99.99,,,0.00,146,weatherlink.com 1.10,2013-08-21 01:53:00,
2013-08-20 19:08:00,80.3,29.0,29.78,NNE,27,6.0,-999.0,15,-99.99,,,0.00,95,weatherlink.com 1.10,2013-08-21 02:08:00,
2013-08-20 19:23:00,80.0,27.0,29.79,NNE,30,3.0,-999.0,14,-99.99,,,0.00,47,weatherlink.com 1.10,2013-08-21 02:23:00,
2013-08-20 19:38:00,79.1,24.0,29.79,North,10,6.0,-999.0,13,-99.99,,,0.00,26,weatherlink.com 1.10,2013-08-21 02:38:00,
2013-08-20 19:53:00,78.0,23.0,29.79,North,351,6.0,-999.0,13,-99.99,,,0.00,18,weatherlink.com 1.10,2013-08-21 02:53:00,
2013-08-20 20:08:00,76.7,26.0,29.79,North,355,4.0,-999.0,15,-99.99,,,0.00,9,weatherlink.com 1.10,2013-08-21 03:08:00,
2013-08-20 20:23:00,75.8,25.0,29.80,North,349,5.0,-999.0,15,-99.99,,,0.00,0,weatherlink.com 1.10,2013-08-21 03:23:00,
2013-08-20 20:38:00,74.9,24.0,29.80,North,5,4.0,-999.0,15,-99.99,,,0.00,0,weatherlink.com 1.10,2013-08-21 03:38:00,
2013-08-20 20:53:00,73.9,25.0,29.81,NNW,345,4.0,-999.0,16,-99.99,,,0.00,0,weatherlink.com 1.10,2013-08-21 03:53:00,
2013-08-20 21:08:00,72.7,25.0,29.82,NNW,346,5.0,-999.0,17,-99.99,,,0.00,0,weatherlink.com 1.10,2013-08-21 04:08:00,
2013-08-20 21:23:00,72.1,29.0,29.82,NNW,348,4.0,-999.0,20,-99.99,,,0.00,0,weatherlink.com 1.10,2013-08-21 04:23:00,
2013-08-20 21:38:00,71.7,30.0,29.83,NNW,339,3.0,-999.0,21,-99.99,,,0.00,0,weatherlink.com 1.10,2013-08-21 04:38:00,
2013-08-20 21:53:00,70.9,30.0,29.83,NNW,340,3.0,-999.0,22,-99.99,,,0.00,0,weatherlink.com 1.10,2013-08-21 04:53:00,
2013-08-20 22:08:00,70.3,30.0,29.84,NNW,344,1.0,-999.0,22,-99.99,,,0.00,0,weatherlink.com 1.10,2013-08-21 05:08:00,
2013-08-20 22:23:00,69.8,30.0,29.84,WNW,303,6.0,-999.0,23,-99.99,,,0.00,0,weatherlink.com 1.10,2013-08-21 05:23:00,
2013-08-20 22:38:00,69.0,32.0,29.84,WNW,299,4.0,-999.0,25,-99.99,,,0.00,0,weatherlink.com 1.10,2013-08-21 05:38:00,
2013-08-20 22:53:00,68.0,32.0,29.84,WNW,288,6.0,-999.0,26,-99.99,,,0.00,0,weatherlink.com 1.10,2013-08-21 05:53:00,
2013-08-20 23:08:00,68.1,33.0,29.83,West,279,4.0,-999.0,27,-99.99,,,0.00,0,weatherlink.com 1.10,2013-08-21 06:08:00,
2013-08-20 23:23:00,68.4,32.0,29.83,WNW,282,4.0,-999.0,26,-99.99,,,0.00,0,weatherlink.com 1.10,2013-08-21 06:23:00,
2013-08-20 23:38:00,68.5,30.0,29.84,NW,311,5.0,-999.0,24,-99.99,,,0.00,0,weatherlink.com 1.10,2013-08-21 06:38:00,
2013-08-20 23:53:00,68.0,31.0,29.83,WNW,288,4.0,-999.0,25,-99.99,,,0.00,0,weatherlink.com 1.10,2013-08-21 06:53:00,